Time;durP1;ratioP1;P1;durP2;ratioP2;P2;SDS_P1;SDS_P2;PMS_P1;PMS_P2;Temp;Humidity;BMP_temperature;BMP_pressure;BME280_temperature;BME280_humidity;BME280_pressure;Samples;Min_cycle;Max_cycle;Signal;HPM_P1;HPM_P2
2021/11/01 00:00:11;;;;;;;44.75;26.60;;;;;;;7.20;70.99;99876.98;1790504;80;27668;-51
2021/11/01 00:02:40;;;;;;;43.17;24.02;;;;;;;7.17;71.17;99880.78;1790649;80;25615;-53
2021/11/01 00:05:09;;;;;;;40.92;23.85;;;;;;;7.17;70.87;99882.95;1790571;80;27499;-54
2021/11/01 00:07:36;;;;;;;42.93;25.25;;;;;;;7.16;70.80;99882.69;1790512;80;25691;-54
2021/11/01 00:10:05;;;;;;;40.65;25.23;;;;;;;7.13;71.09;99882.48;1790501;78;25449;-54
2021/11/01 00:12:32;;;;;;;41.37;25.17;;;;;;;7.10;71.08;99885.23;1790657;79;25612;-53
2021/11/01 00:15:00;;;;;;;43.73;26.23;;;;;;;7.08;71.71;99887.39;1790590;80;25442;-50
2021/11/01 00:17:28;;;;;;;40.28;24.37;;;;;;;7.05;71.04;99886.11;1790520;80;27464;-51
2021/11/01 00:19:55;;;;;;;43.08;26.27;;;;;;;7.04;71.11;99881.81;1790462;80;25454;-52
2021/11/01 00:22:24;;;;;;;42.50;24.40;;;;;;;7.02;71.24;99877.28;1790561;80;25513;-50
2021/11/01 00:24:51;;;;;;;40.03;25.20;;;;;;;6.99;71.53;99873.04;1790489;80;26079;-49
2021/11/01 00:27:18;;;;;;;40.90;25.37;;;;;;;6.96;71.42;99878.45;1790555;80;25615;-50
2021/11/01 00:29:44;;;;;;;40.33;24.85;;;;;;;6.92;71.54;99872.08;1790495;80;28301;-48
2021/11/01 00:32:11;;;;;;;44.08;25.75;;;;;;;6.90;71.64;99878.30;1790405;80;25537;-50
2021/11/01 00:34:38;;;;;;;43.02;25.77;;;;;;;6.88;71.32;99874.55;1790609;80;25474;-49
2021/11/01 00:37:05;;;;;;;48.80;25.77;;;;;;;6.86;71.51;99867.86;1790466;80;26072;-49
2021/11/01 00:39:31;;;;;;;41.33;25.20;;;;;;;6.84;72.00;99871.39;1794265;78;25840;-49
2021/11/01 00:41:58;;;;;;;45.23;26.05;;;;;;;6.83;71.71;99871.16;1796404;79;27470;-50
2021/11/01 00:44:24;;;;;;;41.45;24.95;;;;;;;6.80;71.99;99867.16;1796385;79;25498;-52
2021/11/01 00:46:51;;;;;;;43.02;25.95;;;;;;;6.77;71.90;99856.20;1796379;79;25628;-49
2021/11/01 00:49:17;;;;;;;45.95;25.95;;;;;;;6.73;72.37;99854.64;1796414;79;27832;-50
2021/11/01 00:51:44;;;;;;;46.50;25.65;;;;;;;6.71;72.24;99855.48;1796399;79;25497;-50
2021/11/01 00:54:12;;;;;;;42.05;26.62;;;;;;;6.68;72.44;99858.20;1796372;79;27491;-50
2021/11/01 00:56:39;;;;;;;39.48;24.60;;;;;;;6.64;72.64;99851.01;1796391;79;25435;-49
2021/11/01 00:59:06;;;;;;;42.55;25.48;;;;;;;6.63;73.15;99844.84;1796340;79;25476;-49
2021/11/01 01:01:33;;;;;;;44.80;26.05;;;;;;;6.57;72.62;99833.91;1796314;79;25544;-50
2021/11/01 01:04:01;;;;;;;43.75;25.92;;;;;;;6.58;72.83;99832.05;1796415;79;25608;-54
2021/11/01 01:06:28;;;;;;;43.80;25.65;;;;;;;6.55;73.39;99830.73;1796421;79;27554;-51
2021/11/01 01:08:54;;;;;;;46.30;26.85;;;;;;;6.51;72.90;99841.27;1796248;78;25485;-52
2021/11/01 01:11:21;;;;;;;41.92;23.52;;;;;;;6.49;73.18;99833.27;1796357;79;25603;-52
2021/11/01 01:13:51;;;;;;;37.17;23.47;;;;;;;6.44;72.93;99832.00;1796324;79;27708;-49
2021/11/01 01:18:49;;;;;;;42.93;25.32;;;;;;;6.42;72.80;99833.63;1796490;79;27471;-49
2021/11/01 01:24:02;;;;;;;36.63;23.90;;;;;;;6.41;72.93;99830.68;1796412;79;25496;-49
2021/11/01 01:26:29;;;;;;;40.00;24.07;;;;;;;6.40;72.93;99821.56;1796372;79;25982;-50
2021/11/01 01:28:57;;;;;;;42.03;24.07;;;;;;;6.39;72.92;99819.43;1796399;79;25681;-50
2021/11/01 01:31:26;;;;;;;43.92;24.67;;;;;;;6.39;72.92;99818.64;1796370;79;28303;-50
2021/11/01 01:33:53;;;;;;;;;;;;;;;6.38;73.25;99817.82;1798993;79;25624;-51
2021/11/01 01:36:20;;;;;;;41.37;24.32;;;;;;;6.37;72.88;99809.53;1796383;79;25474;-51
2021/11/01 01:38:46;;;;;;;45.10;25.00;;;;;;;6.31;72.54;99815.50;1796224;78;25690;-51
2021/11/01 01:41:19;;;;;;;40.00;24.70;;;;;;;6.29;72.62;99813.66;1796409;79;25510;-51
2021/11/01 01:43:52;;;;;;;37.58;24.52;;;;;;;6.27;72.65;99805.10;1796445;79;27451;-54
2021/11/01 01:46:21;;;;;;;44.50;25.15;;;;;;;6.23;72.71;99797.39;1796322;79;25605;-50
2021/11/01 01:48:47;;;;;;;42.80;24.75;;;;;;;6.20;73.11;99798.48;1796400;79;25453;-50
2021/11/01 01:51:14;;;;;;;43.17;24.75;;;;;;;6.15;72.78;99795.36;1796303;79;25631;-53
2021/11/01 01:53:41;;;;;;;43.42;26.27;;;;;;;6.13;72.78;99787.59;1796392;79;25509;-53
2021/11/01 01:56:09;;;;;;;46.68;25.30;;;;;;;6.11;73.42;99790.30;1796395;79;27491;-53
2021/11/01 01:58:45;;;;;;;47.13;25.65;;;;;;;6.07;73.32;99790.08;1796369;79;25297;-53
2021/11/01 02:01:12;;;;;;;46.13;24.90;;;;;;;6.04;72.91;99787.19;1778522;79;25761;-51
2021/11/01 02:03:43;;;;;;;43.02;26.77;;;;;;;6.02;73.22;99793.39;1796477;79;27640;-51
2021/11/01 02:06:14;;;;;;;45.10;25.17;;;;;;;6.00;73.31;99787.52;1781221;79;25666;-52
2021/11/01 02:08:54;;;;;;;46.02;26.30;;;;;;;5.96;72.90;99784.07;1794349;78;27563;-51
2021/11/01 02:11:27;;;;;;;41.80;25.62;;;;;;;5.94;73.18;99782.20;1796438;79;25571;-52
2021/11/01 02:13:56;;;;;;;43.55;24.12;;;;;;;5.92;73.27;99775.51;1796529;79;25478;-50
2021/11/01 02:16:24;;;;;;;41.23;23.52;;;;;;;5.88;72.83;99781.22;1796407;79;25670;-52
2021/11/01 02:18:53;;;;;;;44.60;24.23;;;;;;;5.85;73.30;99776.42;1796566;79;25470;-53
2021/11/01 02:21:36;;;;;;;44.20;23.38;;;;;;;5.82;73.20;99772.41;1796550;79;28095;-54
2021/11/01 02:24:08;;;;;;;41.23;23.22;;;;;;;5.80;73.33;99774.59;1749104;82;25573;-52
2021/11/01 02:26:36;;;;;;;38.55;23.60;;;;;;;5.78;73.14;99771.41;1713486;83;25509;-53
2021/11/01 02:29:05;;;;;;;43.87;22.90;;;;;;;5.80;73.32;99766.55;1695686;84;25557;-53
2021/11/01 02:31:33;;;;;;;37.93;22.37;;;;;;;5.82;73.26;99760.34;1696014;84;25713;-53
2021/11/01 02:34:02;;;;;;;37.63;22.48;;;;;;;5.84;73.37;99762.21;1695773;84;27487;-52
2021/11/01 02:36:30;;;;;;;37.63;23.05;;;;;;;5.83;73.10;99756.58;1695792;84;25675;-53
2021/11/01 02:38:59;;;;;;;37.67;23.27;;;;;;;5.81;73.53;99758.76;1693916;83;25776;-54
2021/11/01 02:41:31;;;;;;;37.93;22.32;;;;;;;5.80;73.51;99758.49;1682814;85;25646;-53
2021/11/01 02:44:02;;;;;;;39.00;22.55;;;;;;;5.76;73.16;99753.46;1682895;85;25655;-53
2021/11/01 02:46:29;;;;;;;40.23;24.30;;;;;;;5.77;73.17;99748.33;1682863;85;27466;-53
2021/11/01 02:48:56;;;;;;;40.65;25.55;;;;;;;5.74;73.32;99744.91;1682733;85;25530;-51
2021/11/01 02:51:26;;;;;;;39.50;24.30;;;;;;;5.74;73.58;99749.72;1682798;85;25577;-53
2021/11/01 02:53:57;;;;;;;40.55;24.45;;;;;;;5.70;73.55;99743.88;1682759;85;25731;-50
2021/11/01 02:56:25;;;;;;;43.78;25.75;;;;;;;5.66;73.67;99746.89;1682890;85;25687;-52
2021/11/01 02:58:52;;;;;;;43.15;26.00;;;;;;;5.63;73.61;99744.78;1682812;85;28196;-54
2021/11/01 03:01:20;;;;;;;43.73;25.17;;;;;;;5.59;73.83;99745.36;1715534;82;25495;-50
2021/11/01 03:03:47;;;;;;;50.33;26.48;;;;;;;5.52;74.00;99731.50;1750210;82;25677;-53
2021/11/01 03:06:22;;;;;;;42.78;25.23;;;;;;;5.48;73.37;99729.13;1750195;82;25515;-52
2021/11/01 03:08:50;;;;;;;45.85;25.25;;;;;;;5.43;73.39;99735.90;1750264;80;25585;-53
2021/11/01 03:11:17;;;;;;;40.92;25.55;;;;;;;5.36;73.38;99736.28;1750236;82;27477;-54
2021/11/01 03:13:46;;;;;;;37.45;23.67;;;;;;;5.34;73.71;99736.30;1750143;82;25460;-53
2021/11/01 03:16:14;;;;;;;46.63;25.35;;;;;;;5.28;73.63;99735.57;1750228;81;25538;-54
2021/11/01 03:18:53;;;;;;;41.70;26.30;;;;;;;5.23;73.88;99738.31;1750150;82;25559;-55
2021/11/01 03:21:22;;;;;;;46.60;25.55;;;;;;;5.20;74.35;99731.63;1655837;86;25659;-49
2021/11/01 03:23:50;;;;;;;45.55;25.35;;;;;;;5.17;74.17;99734.87;1657566;86;28096;-51
2021/11/01 03:26:21;;;;;;;46.77;26.35;;;;;;;5.16;74.30;99728.45;1657432;86;25671;-53
2021/11/01 03:28:51;;;;;;;44.75;27.15;;;;;;;5.11;74.45;99721.81;1657516;86;25747;-50
2021/11/01 03:31:20;;;;;;;;;;;;;;;5.08;74.53;99723.20;1659983;86;25683;-51
2021/11/01 03:33:47;;;;;;;41.03;25.47;;;;;;;5.05;74.54;99723.77;1657749;86;25738;-51
2021/11/01 03:36:15;;;;;;;42.10;24.80;;;;;;;4.99;74.83;99728.39;1657531;86;27681;-51
2021/11/01 03:38:42;;;;;;;45.33;25.17;;;;;;;4.95;74.81;99732.70;1657344;86;25915;-50
2021/11/01 03:41:11;;;;;;;42.17;26.23;;;;;;;4.92;74.80;99731.96;1664648;86;25598;-52
2021/11/01 03:43:52;;;;;;;38.70;26.13;;;;;;;4.89;74.65;99733.86;1642883;86;26052;-49
2021/11/01 03:46:13;;;;;;;45.45;26.33;;;;;;;4.85;75.12;99725.59;1664168;86;25595;-51
2021/11/01 03:48:43;;;;;;;42.65;26.75;;;;;;;4.83;74.80;99730.97;1664732;86;27517;-52
2021/11/01 03:51:37;;;;;;;41.35;25.57;;;;;;;4.80;75.03;99728.33;1632412;87;25711;-50
2021/11/01 03:53:43;;;;;;;46.68;25.85;;;;;;;4.76;75.26;99727.28;1646833;86;25609;-48
2021/11/01 03:56:09;;;;;;;46.15;26.30;;;;;;;4.73;75.22;99714.45;1664700;86;25668;-50
2021/11/01 03:58:37;;;;;;;40.85;24.27;;;;;;;4.68;75.87;99711.30;1670065;83;25703;-48
2021/11/01 04:01:03;;;;;;;48.83;25.82;;;;;;;4.65;75.14;99707.05;1747498;82;27474;-53
2021/11/01 04:03:30;;;;;;;42.78;26.40;;;;;;;4.61;75.91;99714.83;1747391;82;25798;-52
2021/11/01 04:06:03;;;;;;;43.23;26.05;;;;;;;4.60;75.89;99713.80;1748537;81;25485;-50
2021/11/01 04:08:27;;;;;;;42.48;25.48;;;;;;;4.57;76.34;99709.80;1748277;81;25625;-52
2021/11/01 04:10:54;;;;;;;45.73;25.72;;;;;;;4.55;76.32;99707.16;1748532;80;25512;-53
2021/11/01 04:13:22;;;;;;;39.60;24.67;;;;;;;4.55;76.17;99707.16;1748518;82;27509;-52
2021/11/01 04:16:00;;;;;;;47.20;26.90;;;;;;;4.53;75.92;99704.77;1756216;81;25445;-50
2021/11/01 04:18:30;;;;;;;41.77;25.30;;;;;;;4.52;76.59;99705.04;1754704;81;25543;-49
2021/11/01 04:20:54;;;;;;;48.75;26.37;;;;;;;4.50;76.25;99699.96;1755647;81;25444;-51
2021/11/01 04:23:28;;;;;;;47.03;26.00;;;;;;;4.51;77.21;99696.73;1756335;81;25457;-52
2021/11/01 04:25:50;;;;;;;49.05;26.12;;;;;;;4.48;76.92;99696.23;1755529;81;27535;-52
2021/11/01 04:28:17;;;;;;;44.75;27.02;;;;;;;4.48;77.31;99690.87;1756320;81;25601;-50
2021/11/01 04:30:48;;;;;;;45.40;26.35;;;;;;;4.50;77.42;99690.59;1756277;81;25447;-49
2021/11/01 04:33:13;;;;;;;43.25;25.68;;;;;;;4.50;76.83;99686.57;1755799;81;25564;-52
2021/11/01 04:35:41;;;;;;;46.95;27.05;;;;;;;4.51;77.83;99684.69;1756303;81;25532;-50
2021/11/01 04:38:20;;;;;;;41.33;25.60;;;;;;;4.48;77.20;99688.19;1756245;81;27721;-49
2021/11/01 04:41:00;;;;;;;41.08;24.77;;;;;;;4.48;77.25;99684.17;1747230;80;25514;-50
2021/11/01 04:54:19;;;;;;;47.40;27.37;;;;;;;4.42;78.09;99671.91;1744511;82;25487;-51
2021/11/01 04:56:46;;;;;;;40.35;24.92;;;;;;;4.41;77.79;99668.98;1744517;82;25748;-51
2021/11/01 04:59:13;;;;;;;46.20;25.68;;;;;;;4.41;77.87;99674.86;1744467;82;26361;-49
2021/11/01 05:01:43;;;;;;;41.58;24.75;;;;;;;4.40;78.38;99673.28;1744568;82;25621;-49
2021/11/01 05:04:15;;;;;;;38.67;23.50;;;;;;;4.40;78.02;99674.63;1744063;82;27493;-52
2021/11/01 05:06:48;;;;;;;41.95;25.95;;;;;;;4.40;77.88;99667.38;1743968;82;25873;-50
2021/11/01 05:09:16;;;;;;;42.10;25.45;;;;;;;4.39;78.35;99663.64;1743406;80;25446;-49
2021/11/01 05:11:48;;;;;;;40.50;24.70;;;;;;;4.40;78.83;99662.57;1743472;82;25564;-52
2021/11/01 05:14:11;;;;;;;43.20;25.97;;;;;;;4.38;78.16;99662.84;1742633;82;25592;-52
2021/11/01 05:19:25;;;;;;;43.02;25.15;;;;;;;4.38;78.20;99663.40;1744451;82;26242;-54
2021/11/01 05:24:28;;;;;;;43.83;25.40;;;;;;;4.37;78.51;99665.25;1744603;82;25522;-50
2021/11/01 05:29:19;;;;;;;47.60;25.35;;;;;;;4.35;78.58;99656.72;1744555;82;28149;-52
2021/11/01 05:32:10;;;;;;;43.60;25.70;;;;;;;4.34;78.71;99659.13;1744448;82;27315;-52
2021/11/01 05:34:30;;;;;;;38.08;24.75;;;;;;;4.33;79.09;99653.53;1742804;82;25746;-52
2021/11/01 05:36:56;;;;;;;45.08;25.45;;;;;;;4.33;79.07;99658.88;1744463;82;25503;-48
2021/11/01 05:39:23;;;;;;;40.75;24.92;;;;;;;4.34;79.11;99662.34;1744469;80;25729;-49
2021/11/01 05:41:49;;;;;;;41.25;24.40;;;;;;;4.33;78.94;99661.56;1749656;82;29681;-50
2021/11/01 05:44:16;;;;;;;39.48;24.12;;;;;;;4.34;79.12;99662.34;1749961;82;25669;-47
2021/11/01 05:46:49;;;;;;;43.95;25.30;;;;;;;4.34;79.10;99657.78;1750040;82;25717;-52
2021/11/01 05:49:12;;;;;;;39.35;22.95;;;;;;;4.34;78.96;99661.80;1721642;82;25566;-51
2021/11/01 05:51:38;;;;;;;39.75;22.32;;;;;;;4.36;80.57;99665.53;1750105;82;25610;-50
2021/11/01 05:54:10;;;;;;;40.83;25.15;;;;;;;4.35;79.70;99663.41;1750104;82;27670;-51
2021/11/01 05:57:03;;;;;;;46.10;25.68;;;;;;;4.37;79.72;99668.48;1749597;82;33212;-50
2021/11/01 06:02:32;;;;;;;40.12;23.42;;;;;;;4.36;79.45;99662.86;1750088;82;25653;-49
2021/11/01 06:04:53;;;;;;;48.35;26.85;;;;;;;4.39;79.73;99672.49;1746634;82;25662;-50
2021/11/01 06:15:10;;;;;;;40.73;24.63;;;;;;;4.52;79.53;99669.67;1750048;82;25626;-49
2021/11/01 06:17:37;;;;;;;40.28;23.85;;;;;;;4.54;79.68;99666.16;1750118;82;25681;-49
2021/11/01 06:20:06;;;;;;;46.10;24.87;;;;;;;4.57;79.33;99664.81;1750022;82;29612;-49
2021/11/01 06:22:32;;;;;;;41.02;23.62;;;;;;;4.59;80.06;99662.64;1750015;82;25869;-49
2021/11/01 06:25:05;;;;;;;41.90;23.40;;;;;;;4.62;79.90;99662.08;1750045;82;25635;-50
2021/11/01 06:27:28;;;;;;;40.87;25.17;;;;;;;4.66;80.07;99668.45;1749498;82;25487;-48
2021/11/01 06:40:46;;;;;;;38.75;22.73;;;;;;;5.05;79.31;99658.87;1748380;80;26385;-50
2021/11/01 06:54:01;;;;;;;39.53;24.37;;;;;;;5.57;78.40;99668.39;1744562;82;27744;-50
2021/11/01 07:15:16;;;;;;;35.20;22.98;;;;;;;7.22;75.64;99666.84;1744527;82;25450;-53
2021/11/01 07:20:24;;;;;;;35.85;20.97;;;;;;;7.78;75.29;99664.27;1744562;82;25618;-54
2021/11/01 07:23:16;;;;;;;31.42;20.37;;;;;;;8.11;73.58;99662.66;1743211;82;25460;-54
2021/11/01 08:39:06;;;;;;;25.62;17.35;;;;;;;16.56;52.91;99618.23;1584044;90;25635;-65
2021/11/01 08:41:39;;;;;;;24.12;17.07;;;;;;;16.68;52.63;99609.84;1583113;88;26170;-65
2021/11/01 08:46:53;;;;;;;22.17;16.93;;;;;;;16.77;50.80;99603.55;1617298;88;27711;-65
2021/11/01 09:26:32;;;;;;;20.00;15.23;;;;;;;17.13;46.75;99575.40;1728976;83;28101;-64
2021/11/01 09:29:03;;;;;;;21.25;14.68;;;;;;;17.30;46.83;99563.70;1727993;82;25708;-63
2021/11/01 09:36:53;;;;;;;20.75;14.85;;;;;;;17.82;43.56;99563.28;1616793;87;26795;-63
2021/11/01 09:39:30;;;;;;;21.52;14.50;;;;;;;17.59;44.34;99558.55;1631495;87;27515;-63
2021/11/01 09:41:45;;;;;;;19.35;14.40;;;;;;;17.74;44.67;99553.42;1630814;87;25669;-65
2021/11/01 09:44:15;;;;;;;23.65;15.72;;;;;;;18.14;45.36;99560.69;1612666;87;25515;-64
2021/11/01 09:46:40;;;;;;;18.70;15.15;;;;;;;18.25;43.85;99546.49;1633236;87;25564;-65
2021/11/01 09:51:37;;;;;;;18.25;14.47;;;;;;;18.27;43.56;99536.75;1633209;87;27588;-65
2021/11/01 09:54:06;;;;;;;22.20;14.63;;;;;;;18.67;43.92;99543.27;1633148;87;25465;-63
2021/11/01 09:56:46;;;;;;;22.52;15.83;;;;;;;18.76;42.76;99533.94;1633288;87;25559;-64
2021/11/01 09:59:12;;;;;;;18.80;15.43;;;;;;;18.77;42.19;99541.77;1632525;87;26004;-64
2021/11/01 10:01:43;;;;;;;20.88;14.80;;;;;;;18.60;41.34;99547.34;1633241;87;25560;-64
2021/11/01 10:04:20;;;;;;;18.23;14.87;;;;;;;18.47;41.71;99528.28;1633221;87;27488;-64
2021/11/01 10:06:59;;;;;;;19.20;13.95;;;;;;;18.60;41.01;99531.50;1640655;86;25685;-64
2021/11/01 10:09:16;;;;;;;20.77;15.30;;;;;;;18.49;41.26;99538.29;1622314;87;25496;-64
2021/11/01 10:11:44;;;;;;;22.50;14.85;;;;;;;18.47;40.58;99537.86;1691038;84;25525;-63
2021/11/01 10:14:13;;;;;;;22.57;14.47;;;;;;;18.40;40.83;99532.34;1701285;84;25530;-63
2021/11/01 10:19:35;;;;;;;19.73;13.18;;;;;;;18.65;41.31;99536.03;1701081;84;25527;-65
2021/11/01 10:22:06;;;;;;;16.52;12.90;;;;;;;18.40;40.21;99524.12;1701177;84;25506;-66
2021/11/01 10:24:41;;;;;;;17.27;13.60;;;;;;;18.40;41.19;99522.76;1700802;84;25545;-64
2021/11/01 10:27:10;;;;;;;17.02;13.72;;;;;;;18.70;41.14;99519.83;1701224;84;25396;-64
2021/11/01 10:29:59;;;;;;;19.37;13.35;;;;;;;18.82;40.07;99522.83;1701158;83;27479;-64
2021/11/01 10:32:37;;;;;;;17.50;14.03;;;;;;;19.12;41.06;99521.80;1695585;84;25518;-64
2021/11/01 10:35:21;;;;;;;16.35;12.90;;;;;;;19.22;38.77;99532.02;1700413;84;25536;-64
2021/11/01 10:43:59;;;;;;;17.82;12.95;;;;;;;19.04;39.55;99516.89;1701717;84;27211;-65
2021/11/01 11:11:57;;;;;;;17.55;12.75;;;;;;;20.64;37.21;99480.41;1727503;83;27580;-63
2021/11/01 11:25:32;;;;;;;14.40;11.22;;;;;;;21.53;36.51;99474.92;1727480;83;28109;-64
2021/11/01 11:47:51;;;;;;;16.37;12.60;;;;;;;22.06;34.45;99457.80;1716739;83;25531;-65
2021/11/01 11:50:20;;;;;;;17.50;12.63;;;;;;;21.65;33.78;99455.18;1716566;83;25494;-65
2021/11/01 11:52:49;;;;;;;17.92;12.20;;;;;;;21.44;34.64;99454.72;1694233;83;26213;-65
2021/11/01 11:55:24;;;;;;;17.57;12.40;;;;;;;21.27;34.64;99451.66;1716776;83;25744;-64
2021/11/01 11:58:00;;;;;;;18.70;12.98;;;;;;;21.35;34.72;99451.61;1716539;83;25542;-65
2021/11/01 12:00:32;;;;;;;17.25;13.30;;;;;;;21.20;35.20;99451.71;1716113;83;25771;-65
2021/11/01 12:03:16;;;;;;;16.52;12.43;;;;;;;20.96;34.69;99445.16;1716872;83;25450;-64
2021/11/01 12:08:28;;;;;;;17.10;12.40;;;;;;;20.40;35.62;99449.06;1716769;83;25799;-64
2021/11/01 12:11:14;;;;;;;14.65;11.53;;;;;;;20.55;35.68;99446.27;1716098;83;25687;-64
2021/11/01 12:19:27;;;;;;;13.37;11.63;;;;;;;20.22;35.61;99453.20;1716014;83;26052;-63
2021/11/01 12:22:41;;;;;;;16.37;12.15;;;;;;;20.00;36.09;99444.80;1716227;83;25524;-64
2021/11/01 12:25:35;;;;;;;18.70;12.95;;;;;;;20.00;35.14;99442.06;1625934;88;25549;-63
2021/11/01 12:29:04;;;;;;;15.68;11.63;;;;;;;19.58;36.13;99436.94;1523159;93;25615;-63
2021/11/01 12:31:47;;;;;;;16.40;12.13;;;;;;;19.44;36.81;99431.42;1502382;95;25640;-63
2021/11/01 12:35:03;;;;;;;18.82;11.85;;;;;;;19.50;35.99;99439.47;1496023;95;25751;-64
2021/11/01 12:37:59;;;;;;;15.68;11.53;;;;;;;19.36;36.61;99436.13;1470948;96;25680;-64
2021/11/01 12:40:54;;;;;;;15.00;11.80;;;;;;;19.46;36.55;99424.18;1425582;100;25377;-64
2021/11/01 12:43:40;;;;;;;18.15;11.60;;;;;;;19.32;36.21;99431.20;1364210;105;25633;-64
2021/11/01 12:57:19;;;;;;;18.70;12.82;;;;;;;20.29;37.54;99422.98;1371332;104;25827;-65
2021/11/01 13:00:06;;;;;;;17.07;12.93;;;;;;;20.71;36.98;99417.79;1371327;104;26209;-65
2021/11/01 13:03:05;;;;;;;16.20;12.15;;;;;;;20.80;36.59;99411.26;1356353;104;25570;-65
2021/11/01 13:05:35;;;;;;;17.60;11.95;;;;;;;20.79;36.21;99414.41;1364677;104;25778;-65
2021/11/01 13:08:06;;;;;;;15.50;12.18;;;;;;;20.73;35.93;99417.39;1358965;104;25866;-65
2021/11/01 13:10:51;;;;;;;15.13;11.35;;;;;;;20.80;35.85;99413.23;1394236;101;25657;-65
2021/11/01 13:18:36;;;;;;;15.15;12.05;;;;;;;20.33;35.91;99416.13;1412807;101;27521;-65
2021/11/01 13:21:19;;;;;;;18.48;13.15;;;;;;;20.42;36.10;99421.20;1417889;99;25842;-65
2021/11/01 13:24:09;;;;;;;16.65;12.43;;;;;;;20.46;35.46;99423.34;1407221;99;25690;-65
2021/11/01 13:27:02;;;;;;;16.52;13.08;;;;;;;20.15;35.81;99429.88;1375458;97;25596;-65
2021/11/01 13:38:54;;;;;;;17.80;12.10;;;;;;;19.95;36.32;99415.78;1385634;101;25416;-65
2021/11/01 13:41:33;;;;;;;17.05;12.85;;;;;;;19.69;36.45;99418.33;1404115;100;25608;-65
2021/11/01 13:44:25;;;;;;;15.85;11.78;;;;;;;19.36;36.14;99412.05;1402892;102;25601;-65
2021/11/01 13:47:06;;;;;;;13.95;11.40;;;;;;;19.02;36.59;99406.30;1364155;105;27527;-64
2021/11/01 13:52:50;;;;;;;14.25;11.15;;;;;;;18.76;36.76;99410.11;1376453;99;25636;-65
2021/11/01 13:58:33;;;;;;;18.35;11.25;;;;;;;18.20;37.18;99400.42;1488613;96;25554;-66
2021/11/01 14:01:20;;;;;;;13.70;11.43;;;;;;;17.97;37.25;99400.09;1485256;96;26337;-66
2021/11/01 14:33:55;;;;;;;20.40;14.70;;;;;;;15.45;41.73;99401.70;1543305;92;25508;-64
2021/11/01 15:04:26;;;;;;;21.95;13.83;;;;;;;13.41;45.79;99407.86;1626026;88;25652;-64
2021/11/01 15:11:49;;;;;;;19.07;13.70;;;;;;;12.97;46.87;99405.13;1654586;86;25522;-64
2021/11/01 15:14:21;;;;;;;21.90;14.45;;;;;;;12.85;47.36;99410.61;1655337;86;25602;-63
2021/11/01 15:22:20;;;;;;;22.42;14.40;;;;;;;12.51;48.54;99409.49;1667972;86;27553;-64
2021/11/01 15:27:36;;;;;;;22.70;15.32;;;;;;;12.32;48.40;99414.14;1668586;86;25463;-63
2021/11/01 15:35:25;;;;;;;21.90;15.03;;;;;;;12.05;49.95;99418.36;1668636;86;27456;-63
2021/11/01 15:38:04;;;;;;;22.73;14.93;;;;;;;11.94;50.00;99415.89;1666881;84;25578;-65
2021/11/01 16:18:48;;;;;;;28.00;18.48;;;;;;;10.78;53.12;99437.48;1617713;88;25520;-64
2021/11/01 16:21:17;;;;;;;32.10;19.10;;;;;;;10.69;53.27;99438.88;1617887;88;25639;-64
2021/11/01 16:23:43;;;;;;;32.83;20.20;;;;;;;10.60;53.32;99447.06;1617650;88;25932;-63
2021/11/01 16:26:24;;;;;;;30.72;20.75;;;;;;;10.53;53.73;99441.40;1618149;88;25437;-65
2021/11/01 16:28:42;;;;;;;32.95;21.10;;;;;;;10.45;54.00;99445.77;1617264;88;28069;-64
2021/11/01 16:31:24;;;;;;;35.75;23.18;;;;;;;10.35;54.59;99440.73;1617999;88;25757;-64
2021/11/01 16:34:15;;;;;;;35.80;21.00;;;;;;;10.26;54.22;99439.38;1616376;88;25475;-64
2021/11/01 16:36:48;;;;;;;37.85;24.60;;;;;;;10.18;55.27;99445.66;1646679;85;25496;-64
2021/11/01 16:39:12;;;;;;;34.95;21.80;;;;;;;10.07;55.29;99438.47;1611996;86;25501;-63
2021/11/01 16:41:41;;;;;;;30.92;20.57;;;;;;;9.98;55.47;99438.30;1633035;87;27487;-64
2021/11/01 16:46:55;;;;;;;30.08;19.80;;;;;;;9.83;56.50;99434.23;1633063;87;25454;-64
2021/11/01 16:49:24;;;;;;;31.95;19.95;;;;;;;9.76;56.69;99432.03;1633036;87;25724;-64
2021/11/01 16:51:52;;;;;;;32.08;21.73;;;;;;;9.69;56.98;99426.34;1633210;87;25424;-65
2021/11/01 16:54:24;;;;;;;30.95;21.27;;;;;;;9.66;57.34;99431.03;1633053;87;27526;-63
2021/11/01 17:04:47;;;;;;;33.73;20.27;;;;;;;9.48;60.13;99427.59;1579400;90;25653;-64
2021/11/01 17:07:19;;;;;;;35.45;21.07;;;;;;;9.47;59.42;99434.12;1578819;89;27493;-64
2021/11/01 17:26:29;;;;;;;34.70;20.37;;;;;;;9.36;60.38;99430.95;1601618;87;25533;-64
2021/11/01 18:40:43;;;;;;;30.32;18.77;;;;;;;8.69;62.96;99414.80;1692108;82;25787;-63
2021/11/01 18:43:18;;;;;;;29.85;17.82;;;;;;;8.66;63.68;99415.42;1691331;84;27486;-63
2021/11/01 18:51:05;;;;;;;29.50;18.60;;;;;;;8.58;62.93;99422.38;1692086;84;25296;-64
2021/11/01 18:53:44;;;;;;;34.98;18.00;;;;;;;8.56;63.70;99421.37;1692221;84;25359;-64
2021/11/01 18:56:12;;;;;;;;;;;;;;;8.54;63.19;99418.18;1694480;84;27329;-64
2021/11/01 18:58:41;;;;;;;32.38;18.40;;;;;;;8.52;63.83;99420.41;1692049;84;25542;-64
2021/11/01 19:01:11;;;;;;;33.63;18.55;;;;;;;8.49;63.45;99423.73;1692232;84;25534;-64
2021/11/01 19:03:45;;;;;;;35.92;18.57;;;;;;;8.47;63.21;99419.78;1692022;84;25455;-63
2021/11/01 19:06:34;;;;;;;30.48;19.05;;;;;;;8.43;63.48;99412.06;1692221;84;25463;-62
2021/11/01 19:09:14;;;;;;;30.55;19.20;;;;;;;8.40;63.84;99414.82;1691051;84;27421;-63
2021/11/01 20:04:03;;;;;;;35.30;19.23;;;;;;;7.63;65.61;99383.36;1620052;88;27979;-65
2021/11/01 21:24:31;;;;;;;33.38;19.98;;;;;;;7.40;66.88;99391.48;1768935;80;25689;-63
2021/11/01 21:26:59;;;;;;;35.83;22.62;;;;;;;6.54;69.36;99366.44;1758834;81;27546;-65
2021/11/01 21:29:27;;;;;;;41.60;25.35;;;;;;;6.49;69.48;99363.09;1751854;81;25595;-65
2021/11/01 21:31:55;;;;;;;41.15;23.42;;;;;;;6.46;70.40;99362.34;1772530;80;25472;-63
2021/11/01 21:36:56;;;;;;;40.20;23.32;;;;;;;6.38;69.85;99359.82;1752036;81;25637;-64
2021/11/01 21:39:22;;;;;;;41.28;23.55;;;;;;;6.35;69.72;99355.05;1772619;80;28504;-64
2021/11/01 21:41:49;;;;;;;38.85;22.02;;;;;;;6.33;70.26;99357.25;1751919;81;25976;-64
2021/11/01 21:44:16;;;;;;;42.20;23.95;;;;;;;6.28;70.20;99355.49;1722327;81;25594;-64
2021/11/01 21:46:43;;;;;;;41.40;22.93;;;;;;;6.24;70.24;99362.55;1772533;80;26273;-64
2021/11/01 21:49:09;;;;;;;39.33;22.27;;;;;;;6.22;70.19;99353.22;1751969;81;25624;-64
2021/11/01 21:51:40;;;;;;;36.83;21.50;;;;;;;6.19;70.55;99353.27;1751978;81;27484;-64
2021/11/01 21:56:45;;;;;;;37.33;22.60;;;;;;;6.14;70.34;99348.79;1752441;81;25538;-63
2021/11/01 22:09:44;;;;;;;36.70;22.27;;;;;;;6.11;70.44;99344.58;1772949;80;25448;-63
2021/11/01 22:20:47;;;;;;;41.18;21.93;;;;;;;5.97;71.36;99340.02;1751867;81;26242;-64
2021/11/01 22:23:29;;;;;;;44.20;23.62;;;;;;;5.96;71.24;99340.35;1751192;81;25734;-63
2021/11/01 22:26:03;;;;;;;38.53;22.93;;;;;;;5.94;71.61;99337.94;1770380;80;25524;-63
2021/11/01 22:34:00;;;;;;;41.15;24.40;;;;;;;5.78;71.46;99325.37;1772777;80;25667;-63
2021/11/01 22:44:40;;;;;;;40.48;24.12;;;;;;;5.60;72.29;99312.34;1751923;81;27514;-64
2021/11/01 22:57:57;;;;;;;43.13;23.12;;;;;;;5.36;72.84;99311.20;1772875;80;29682;-63
2021/11/01 23:00:53;;;;;;;43.02;23.02;;;;;;;5.33;72.74;99302.94;1751693;81;25581;-63
2021/11/01 23:03:33;;;;;;;42.45;24.23;;;;;;;5.30;72.89;99300.31;1686165;85;25703;-63
2021/11/01 23:32:57;;;;;;;41.88;24.07;;;;;;;4.99;73.09;99285.36;1664812;86;25758;-64
2021/11/01 23:35:24;;;;;;;45.03;26.20;;;;;;;4.93;73.42;99287.32;1664337;86;25703;-63
2021/11/01 23:37:51;;;;;;;45.03;25.37;;;;;;;4.90;73.57;99283.10;1665913;86;27497;-63
2021/11/01 23:40:18;;;;;;;50.25;26.40;;;;;;;4.86;73.67;99280.22;1684564;84;25725;-63
2021/11/01 23:42:44;;;;;;;47.33;28.20;;;;;;;4.83;74.13;99281.59;1693941;84;25607;-64
2021/11/01 23:45:12;;;;;;;44.93;26.97;;;;;;;4.80;74.19;99274.69;1693881;84;25440;-63
2021/11/01 23:47:39;;;;;;;49.18;28.47;;;;;;;4.78;74.02;99280.89;1693932;84;25613;-63
2021/11/01 23:50:07;;;;;;;47.40;26.57;;;;;;;4.75;74.08;99280.95;1693836;84;27638;-63
2021/11/01 23:52:41;;;;;;;49.30;27.95;;;;;;;4.71;74.46;99277.81;1693755;84;25670;-63